sensor_id;sensor_type;location;lat;lon;timestamp;P1;durP1;ratioP1;P2;durP2;ratioP2
297;SDS011;133;49.626;9.680;2022-10-16T00:02:24;2.47;;;2.27;;
297;SDS011;133;49.626;9.680;2022-10-16T00:04:49;2.27;;;2.07;;
297;SDS011;133;49.626;9.680;2022-10-16T00:07:15;2.63;;;2.43;;
297;SDS011;133;49.626;9.680;2022-10-16T00:09:40;2.50;;;2.30;;
297;SDS011;133;49.626;9.680;2022-10-16T00:12:06;3.20;;;2.10;;
297;SDS011;133;49.626;9.680;2022-10-16T00:14:32;2.60;;;2.40;;
297;SDS011;133;49.626;9.680;2022-10-16T00:16:58;2.37;;;2.20;;
297;SDS011;133;49.626;9.680;2022-10-16T00:19:23;6.50;;;2.57;;
297;SDS011;133;49.626;9.680;2022-10-16T00:21:49;4.13;;;2.50;;
297;SDS011;133;49.626;9.680;2022-10-16T00:24:15;2.50;;;2.30;;
297;SDS011;133;49.626;9.680;2022-10-16T00:26:40;3.40;;;2.30;;
297;SDS011;133;49.626;9.680;2022-10-16T00:29:06;4.80;;;2.43;;
297;SDS011;133;49.626;9.680;2022-10-16T00:31:32;3.30;;;2.47;;
297;SDS011;133;49.626;9.680;2022-10-16T00:33:58;4.67;;;2.70;;
297;SDS011;133;49.626;9.680;2022-10-16T00:36:25;2.53;;;2.40;;
297;SDS011;133;49.626;9.680;2022-10-16T00:38:52;6.20;;;2.67;;
297;SDS011;133;49.626;9.680;2022-10-16T00:41:20;2.83;;;2.30;;
297;SDS011;133;49.626;9.680;2022-10-16T00:43:57;4.20;;;2.27;;
297;SDS011;133;49.626;9.680;2022-10-16T00:46:31;3.60;;;2.57;;
297;SDS011;133;49.626;9.680;2022-10-16T00:49:08;2.37;;;2.17;;
297;SDS011;133;49.626;9.680;2022-10-16T00:51:36;2.73;;;2.50;;
297;SDS011;133;49.626;9.680;2022-10-16T00:54:06;2.57;;;2.37;;
297;SDS011;133;49.626;9.680;2022-10-16T00:56:38;3.53;;;2.53;;
297;SDS011;133;49.626;9.680;2022-10-16T00:59:06;4.13;;;2.50;;
297;SDS011;133;49.626;9.680;2022-10-16T01:01:44;2.40;;;2.20;;
297;SDS011;133;49.626;9.680;2022-10-16T01:04:10;5.80;;;2.50;;
297;SDS011;133;49.626;9.680;2022-10-16T01:06:56;3.60;;;2.20;;
297;SDS011;133;49.626;9.680;2022-10-16T01:09:34;3.13;;;2.40;;
297;SDS011;133;49.626;9.680;2022-10-16T01:17:45;2.60;;;2.40;;
297;SDS011;133;49.626;9.680;2022-10-16T01:20:20;4.63;;;2.43;;
297;SDS011;133;49.626;9.680;2022-10-16T01:28:31;3.17;;;2.40;;
297;SDS011;133;49.626;9.680;2022-10-16T01:31:04;2.43;;;2.23;;
297;SDS011;133;49.626;9.680;2022-10-16T01:33:40;5.03;;;2.80;;
297;SDS011;133;49.626;9.680;2022-10-16T01:36:11;5.87;;;2.23;;
297;SDS011;133;49.626;9.680;2022-10-16T01:38:40;2.40;;;2.10;;
297;SDS011;133;49.626;9.680;2022-10-16T01:41:15;2.80;;;2.30;;
297;SDS011;133;49.626;9.680;2022-10-16T01:44:06;3.63;;;2.47;;
297;SDS011;133;49.626;9.680;2022-10-16T01:46:36;6.73;;;2.30;;
297;SDS011;133;49.626;9.680;2022-10-16T01:49:04;2.20;;;2.00;;
297;SDS011;133;49.626;9.680;2022-10-16T01:51:32;2.60;;;2.20;;
297;SDS011;133;49.626;9.680;2022-10-16T01:54:00;5.03;;;2.13;;
297;SDS011;133;49.626;9.680;2022-10-16T01:56:27;2.23;;;2.03;;
297;SDS011;133;49.626;9.680;2022-10-16T01:58:55;4.43;;;3.03;;
297;SDS011;133;49.626;9.680;2022-10-16T02:01:35;2.80;;;2.43;;
297;SDS011;133;49.626;9.680;2022-10-16T02:04:09;3.20;;;2.47;;
297;SDS011;133;49.626;9.680;2022-10-16T02:06:40;2.00;;;1.90;;
297;SDS011;133;49.626;9.680;2022-10-16T02:09:06;2.93;;;2.00;;
297;SDS011;133;49.626;9.680;2022-10-16T02:11:31;2.50;;;2.30;;
297;SDS011;133;49.626;9.680;2022-10-16T02:14:04;5.73;;;3.60;;
297;SDS011;133;49.626;9.680;2022-10-16T02:16:35;9.20;;;2.20;;
297;SDS011;133;49.626;9.680;2022-10-16T02:19:06;3.00;;;2.30;;
297;SDS011;133;49.626;9.680;2022-10-16T02:22:05;2.07;;;1.93;;
297;SDS011;133;49.626;9.680;2022-10-16T02:30:06;2.33;;;2.13;;
297;SDS011;133;49.626;9.680;2022-10-16T02:32:39;2.30;;;2.10;;
297;SDS011;133;49.626;9.680;2022-10-16T02:35:07;3.70;;;2.10;;
297;SDS011;133;49.626;9.680;2022-10-16T02:37:34;6.10;;;2.30;;
297;SDS011;133;49.626;9.680;2022-10-16T02:40:01;2.40;;;2.23;;
297;SDS011;133;49.626;9.680;2022-10-16T02:42:33;3.40;;;2.20;;
297;SDS011;133;49.626;9.680;2022-10-16T02:45:03;2.60;;;2.10;;
297;SDS011;133;49.626;9.680;2022-10-16T02:47:30;2.80;;;2.20;;
297;SDS011;133;49.626;9.680;2022-10-16T02:49:55;2.73;;;2.20;;
297;SDS011;133;49.626;9.680;2022-10-16T02:52:21;3.23;;;2.40;;
297;SDS011;133;49.626;9.680;2022-10-16T02:54:47;2.70;;;2.20;;
297;SDS011;133;49.626;9.680;2022-10-16T02:57:12;3.57;;;2.20;;
297;SDS011;133;49.626;9.680;2022-10-16T02:59:38;5.33;;;2.20;;
297;SDS011;133;49.626;9.680;2022-10-16T03:02:03;5.80;;;2.50;;
297;SDS011;133;49.626;9.680;2022-10-16T03:04:29;5.47;;;1.97;;
297;SDS011;133;49.626;9.680;2022-10-16T03:06:55;2.30;;;2.10;;
297;SDS011;133;49.626;9.680;2022-10-16T03:09:20;1.80;;;1.70;;
297;SDS011;133;49.626;9.680;2022-10-16T03:11:46;2.23;;;2.03;;
297;SDS011;133;49.626;9.680;2022-10-16T03:14:12;2.33;;;2.00;;
297;SDS011;133;49.626;9.680;2022-10-16T03:16:38;3.70;;;2.23;;
297;SDS011;133;49.626;9.680;2022-10-16T03:19:03;5.57;;;2.30;;
297;SDS011;133;49.626;9.680;2022-10-16T03:21:29;2.20;;;2.00;;
297;SDS011;133;49.626;9.680;2022-10-16T03:23:55;2.30;;;2.10;;
297;SDS011;133;49.626;9.680;2022-10-16T03:26:20;2.43;;;2.23;;
297;SDS011;133;49.626;9.680;2022-10-16T03:28:46;2.40;;;2.20;;
297;SDS011;133;49.626;9.680;2022-10-16T03:31:11;2.60;;;2.40;;
297;SDS011;133;49.626;9.680;2022-10-16T03:33:37;5.50;;;2.50;;
297;SDS011;133;49.626;9.680;2022-10-16T03:36:03;3.80;;;2.40;;
297;SDS011;133;49.626;9.680;2022-10-16T03:38:29;3.97;;;2.60;;
297;SDS011;133;49.626;9.680;2022-10-16T03:40:54;2.57;;;2.37;;
297;SDS011;133;49.626;9.680;2022-10-16T03:43:20;5.30;;;2.20;;
297;SDS011;133;49.626;9.680;2022-10-16T03:45:45;2.30;;;2.07;;
297;SDS011;133;49.626;9.680;2022-10-16T03:48:11;2.70;;;1.93;;
297;SDS011;133;49.626;9.680;2022-10-16T03:50:36;2.20;;;2.00;;
297;SDS011;133;49.626;9.680;2022-10-16T03:53:02;3.00;;;2.40;;
297;SDS011;133;49.626;9.680;2022-10-16T03:55:28;2.73;;;2.10;;
297;SDS011;133;49.626;9.680;2022-10-16T03:57:54;2.20;;;2.00;;
297;SDS011;133;49.626;9.680;2022-10-16T04:00:19;2.40;;;2.20;;
297;SDS011;133;49.626;9.680;2022-10-16T04:02:45;5.43;;;2.10;;
297;SDS011;133;49.626;9.680;2022-10-16T04:05:11;13.17;;;2.33;;
297;SDS011;133;49.626;9.680;2022-10-16T04:07:36;3.07;;;2.33;;
297;SDS011;133;49.626;9.680;2022-10-16T04:10:02;2.20;;;2.07;;
297;SDS011;133;49.626;9.680;2022-10-16T04:12:28;6.70;;;2.07;;
297;SDS011;133;49.626;9.680;2022-10-16T04:14:54;2.40;;;2.20;;
297;SDS011;133;49.626;9.680;2022-10-16T04:17:20;2.47;;;2.30;;
297;SDS011;133;49.626;9.680;2022-10-16T04:19:45;2.43;;;2.17;;
297;SDS011;133;49.626;9.680;2022-10-16T04:22:11;3.30;;;2.17;;
297;SDS011;133;49.626;9.680;2022-10-16T04:24:36;3.50;;;2.37;;
297;SDS011;133;49.626;9.680;2022-10-16T04:27:02;2.13;;;1.97;;
297;SDS011;133;49.626;9.680;2022-10-16T04:29:28;5.53;;;2.20;;
297;SDS011;133;49.626;9.680;2022-10-16T04:31:53;2.30;;;2.10;;
297;SDS011;133;49.626;9.680;2022-10-16T04:34:19;2.27;;;2.07;;
297;SDS011;133;49.626;9.680;2022-10-16T04:36:47;2.00;;;1.90;;
297;SDS011;133;49.626;9.680;2022-10-16T04:39:14;3.20;;;2.37;;
297;SDS011;133;49.626;9.680;2022-10-16T04:41:40;2.73;;;2.20;;
297;SDS011;133;49.626;9.680;2022-10-16T04:44:05;3.00;;;2.30;;
297;SDS011;133;49.626;9.680;2022-10-16T04:46:31;2.30;;;2.17;;
297;SDS011;133;49.626;9.680;2022-10-16T04:48:57;2.90;;;2.30;;
297;SDS011;133;49.626;9.680;2022-10-16T04:51:22;2.30;;;2.10;;
297;SDS011;133;49.626;9.680;2022-10-16T04:53:48;3.03;;;2.30;;
297;SDS011;133;49.626;9.680;2022-10-16T04:56:14;2.63;;;2.40;;
297;SDS011;133;49.626;9.680;2022-10-16T04:58:40;2.50;;;2.27;;
297;SDS011;133;49.626;9.680;2022-10-16T05:01:06;2.40;;;2.20;;
297;SDS011;133;49.626;9.680;2022-10-16T05:03:31;4.60;;;2.30;;
297;SDS011;133;49.626;9.680;2022-10-16T05:05:57;2.30;;;2.10;;
297;SDS011;133;49.626;9.680;2022-10-16T05:08:22;2.43;;;2.23;;
297;SDS011;133;49.626;9.680;2022-10-16T05:10:48;5.07;;;2.00;;
297;SDS011;133;49.626;9.680;2022-10-16T05:13:14;3.20;;;2.30;;
297;SDS011;133;49.626;9.680;2022-10-16T05:15:39;2.40;;;2.13;;
297;SDS011;133;49.626;9.680;2022-10-16T05:18:05;2.00;;;1.90;;
297;SDS011;133;49.626;9.680;2022-10-16T05:20:31;2.00;;;1.90;;
297;SDS011;133;49.626;9.680;2022-10-16T05:22:56;2.67;;;2.47;;
297;SDS011;133;49.626;9.680;2022-10-16T05:25:22;2.40;;;2.20;;
297;SDS011;133;49.626;9.680;2022-10-16T05:27:48;1.90;;;1.80;;
297;SDS011;133;49.626;9.680;2022-10-16T05:30:15;9.30;;;2.00;;
297;SDS011;133;49.626;9.680;2022-10-16T05:32:41;2.30;;;2.10;;
297;SDS011;133;49.626;9.680;2022-10-16T05:35:07;2.50;;;2.10;;
297;SDS011;133;49.626;9.680;2022-10-16T05:37:32;4.60;;;2.10;;
297;SDS011;133;49.626;9.680;2022-10-16T05:39:58;2.40;;;2.20;;
297;SDS011;133;49.626;9.680;2022-10-16T05:42:23;5.73;;;2.40;;
297;SDS011;133;49.626;9.680;2022-10-16T05:44:49;4.87;;;2.60;;
297;SDS011;133;49.626;9.680;2022-10-16T05:47:15;2.47;;;2.27;;
297;SDS011;133;49.626;9.680;2022-10-16T05:49:40;3.33;;;2.20;;
297;SDS011;133;49.626;9.680;2022-10-16T05:52:06;5.43;;;2.13;;
297;SDS011;133;49.626;9.680;2022-10-16T05:54:31;3.27;;;2.30;;
297;SDS011;133;49.626;9.680;2022-10-16T05:56:57;3.33;;;2.07;;
297;SDS011;133;49.626;9.680;2022-10-16T05:59:22;3.37;;;2.10;;
297;SDS011;133;49.626;9.680;2022-10-16T06:01:48;4.60;;;2.10;;
297;SDS011;133;49.626;9.680;2022-10-16T06:04:14;5.17;;;2.23;;
297;SDS011;133;49.626;9.680;2022-10-16T06:06:39;3.20;;;3.00;;
297;SDS011;133;49.626;9.680;2022-10-16T06:09:05;7.47;;;5.70;;
297;SDS011;133;49.626;9.680;2022-10-16T06:11:31;5.80;;;5.50;;
297;SDS011;133;49.626;9.680;2022-10-16T06:13:59;3.27;;;3.07;;
297;SDS011;133;49.626;9.680;2022-10-16T06:16:32;4.40;;;3.20;;
297;SDS011;133;49.626;9.680;2022-10-16T06:19:02;2.60;;;2.40;;
297;SDS011;133;49.626;9.680;2022-10-16T06:21:31;3.20;;;2.40;;
297;SDS011;133;49.626;9.680;2022-10-16T06:23:57;3.20;;;2.60;;
297;SDS011;133;49.626;9.680;2022-10-16T06:26:24;5.80;;;3.97;;
297;SDS011;133;49.626;9.680;2022-10-16T06:28:53;5.07;;;4.77;;
297;SDS011;133;49.626;9.680;2022-10-16T06:31:20;4.23;;;3.53;;
297;SDS011;133;49.626;9.680;2022-10-16T06:33:49;4.73;;;3.93;;
297;SDS011;133;49.626;9.680;2022-10-16T06:36:16;5.83;;;5.07;;
297;SDS011;133;49.626;9.680;2022-10-16T06:38:42;10.03;;;5.63;;
297;SDS011;133;49.626;9.680;2022-10-16T06:41:09;6.13;;;5.60;;
297;SDS011;133;49.626;9.680;2022-10-16T06:43:38;6.33;;;5.97;;
297;SDS011;133;49.626;9.680;2022-10-16T06:46:04;13.93;;;11.23;;
297;SDS011;133;49.626;9.680;2022-10-16T06:48:32;10.20;;;8.73;;
297;SDS011;133;49.626;9.680;2022-10-16T06:51:03;7.23;;;6.40;;
297;SDS011;133;49.626;9.680;2022-10-16T06:53:31;5.00;;;4.70;;
297;SDS011;133;49.626;9.680;2022-10-16T06:56:15;9.67;;;3.47;;
297;SDS011;133;49.626;9.680;2022-10-16T06:58:42;3.03;;;2.80;;
297;SDS011;133;49.626;9.680;2022-10-16T07:01:08;4.47;;;2.50;;
297;SDS011;133;49.626;9.680;2022-10-16T07:03:41;9.80;;;6.70;;
297;SDS011;133;49.626;9.680;2022-10-16T07:06:09;41.10;;;28.27;;
297;SDS011;133;49.626;9.680;2022-10-16T07:08:38;21.00;;;19.10;;
297;SDS011;133;49.626;9.680;2022-10-16T07:11:06;17.53;;;16.63;;
297;SDS011;133;49.626;9.680;2022-10-16T07:13:33;7.50;;;7.10;;
297;SDS011;133;49.626;9.680;2022-10-16T07:16:12;6.40;;;6.00;;
297;SDS011;133;49.626;9.680;2022-10-16T07:18:40;5.37;;;5.07;;
297;SDS011;133;49.626;9.680;2022-10-16T07:21:08;4.07;;;3.87;;
297;SDS011;133;49.626;9.680;2022-10-16T07:23:35;3.33;;;3.13;;
297;SDS011;133;49.626;9.680;2022-10-16T07:26:01;3.37;;;3.20;;
297;SDS011;133;49.626;9.680;2022-10-16T07:28:28;2.60;;;2.40;;
297;SDS011;133;49.626;9.680;2022-10-16T07:30:54;2.90;;;2.70;;
297;SDS011;133;49.626;9.680;2022-10-16T07:33:20;3.60;;;2.60;;
297;SDS011;133;49.626;9.680;2022-10-16T07:35:53;2.73;;;2.30;;
297;SDS011;133;49.626;9.680;2022-10-16T07:38:19;3.40;;;2.60;;
297;SDS011;133;49.626;9.680;2022-10-16T07:40:46;2.40;;;2.20;;
297;SDS011;133;49.626;9.680;2022-10-16T07:43:11;3.87;;;2.30;;
297;SDS011;133;49.626;9.680;2022-10-16T07:45:37;2.90;;;2.27;;
297;SDS011;133;49.626;9.680;2022-10-16T07:48:11;3.00;;;2.37;;
297;SDS011;133;49.626;9.680;2022-10-16T07:50:36;2.27;;;2.07;;
297;SDS011;133;49.626;9.680;2022-10-16T07:53:02;4.03;;;2.33;;
297;SDS011;133;49.626;9.680;2022-10-16T07:55:28;3.97;;;2.43;;
297;SDS011;133;49.626;9.680;2022-10-16T07:57:54;3.10;;;2.30;;
297;SDS011;133;49.626;9.680;2022-10-16T08:00:19;2.60;;;2.40;;
297;SDS011;133;49.626;9.680;2022-10-16T08:02:45;3.73;;;3.00;;
297;SDS011;133;49.626;9.680;2022-10-16T08:05:11;24.57;;;14.90;;
297;SDS011;133;49.626;9.680;2022-10-16T08:07:36;17.53;;;12.80;;
297;SDS011;133;49.626;9.680;2022-10-16T08:10:02;19.57;;;13.03;;
297;SDS011;133;49.626;9.680;2022-10-16T08:12:28;14.20;;;8.83;;
297;SDS011;133;49.626;9.680;2022-10-16T08:14:53;9.83;;;7.20;;
297;SDS011;133;49.626;9.680;2022-10-16T08:17:19;10.70;;;7.40;;
297;SDS011;133;49.626;9.680;2022-10-16T08:19:45;14.50;;;9.40;;
297;SDS011;133;49.626;9.680;2022-10-16T08:22:12;11.00;;;6.53;;
297;SDS011;133;49.626;9.680;2022-10-16T08:24:38;8.87;;;6.60;;
297;SDS011;133;49.626;9.680;2022-10-16T08:27:04;7.77;;;5.63;;
297;SDS011;133;49.626;9.680;2022-10-16T08:29:29;4.67;;;4.37;;
297;SDS011;133;49.626;9.680;2022-10-16T08:31:55;4.60;;;3.60;;
297;SDS011;133;49.626;9.680;2022-10-16T08:34:21;4.10;;;3.40;;
297;SDS011;133;49.626;9.680;2022-10-16T08:36:47;6.10;;;3.63;;
297;SDS011;133;49.626;9.680;2022-10-16T08:39:12;3.07;;;2.73;;
297;SDS011;133;49.626;9.680;2022-10-16T08:44:54;2.70;;;2.50;;
297;SDS011;133;49.626;9.680;2022-10-16T08:50:29;5.83;;;3.90;;
297;SDS011;133;49.626;9.680;2022-10-16T08:52:57;7.70;;;3.07;;
297;SDS011;133;49.626;9.680;2022-10-16T08:57:58;2.93;;;2.50;;
297;SDS011;133;49.626;9.680;2022-10-16T09:00:25;7.40;;;4.27;;
297;SDS011;133;49.626;9.680;2022-10-16T09:02:53;5.03;;;3.57;;
297;SDS011;133;49.626;9.680;2022-10-16T09:25:30;4.13;;;2.67;;
297;SDS011;133;49.626;9.680;2022-10-16T09:27:57;2.20;;;2.00;;
297;SDS011;133;49.626;9.680;2022-10-16T09:30:23;2.30;;;2.10;;
297;SDS011;133;49.626;9.680;2022-10-16T09:32:54;2.50;;;2.17;;
297;SDS011;133;49.626;9.680;2022-10-16T09:35:24;2.67;;;2.20;;
297;SDS011;133;49.626;9.680;2022-10-16T09:37:58;4.97;;;2.13;;
297;SDS011;133;49.626;9.680;2022-10-16T09:40:25;2.50;;;2.30;;
297;SDS011;133;49.626;9.680;2022-10-16T09:43:15;4.10;;;2.03;;
297;SDS011;133;49.626;9.680;2022-10-16T09:46:03;2.57;;;2.10;;
297;SDS011;133;49.626;9.680;2022-10-16T09:48:43;3.70;;;2.00;;
297;SDS011;133;49.626;9.680;2022-10-16T09:51:31;2.70;;;2.07;;
297;SDS011;133;49.626;9.680;2022-10-16T09:56:35;11.93;;;2.43;;
297;SDS011;133;49.626;9.680;2022-10-16T10:02:29;7.27;;;4.00;;
297;SDS011;133;49.626;9.680;2022-10-16T10:05:04;7.47;;;5.50;;
297;SDS011;133;49.626;9.680;2022-10-16T10:07:42;26.03;;;14.93;;
297;SDS011;133;49.626;9.680;2022-10-16T10:11:11;27.63;;;15.80;;
297;SDS011;133;49.626;9.680;2022-10-16T10:13:19;21.47;;;12.93;;
297;SDS011;133;49.626;9.680;2022-10-16T10:15:47;5.13;;;2.90;;
297;SDS011;133;49.626;9.680;2022-10-16T10:18:17;8.30;;;4.47;;
297;SDS011;133;49.626;9.680;2022-10-16T10:20:45;8.27;;;4.57;;
297;SDS011;133;49.626;9.680;2022-10-16T10:23:21;8.87;;;4.87;;
297;SDS011;133;49.626;9.680;2022-10-16T10:25:55;4.33;;;4.07;;
297;SDS011;133;49.626;9.680;2022-10-16T10:28:37;6.97;;;5.17;;
297;SDS011;133;49.626;9.680;2022-10-16T10:31:21;4.30;;;4.00;;
297;SDS011;133;49.626;9.680;2022-10-16T10:34:08;3.40;;;3.27;;
297;SDS011;133;49.626;9.680;2022-10-16T10:36:52;5.00;;;3.47;;
297;SDS011;133;49.626;9.680;2022-10-16T10:39:40;3.30;;;3.10;;
297;SDS011;133;49.626;9.680;2022-10-16T10:42:28;7.50;;;4.17;;
297;SDS011;133;49.626;9.680;2022-10-16T10:45:21;3.73;;;3.40;;
297;SDS011;133;49.626;9.680;2022-10-16T10:50:26;3.73;;;2.87;;
297;SDS011;133;49.626;9.680;2022-10-16T10:53:10;3.87;;;3.50;;
297;SDS011;133;49.626;9.680;2022-10-16T10:55:43;11.93;;;3.80;;
297;SDS011;133;49.626;9.680;2022-10-16T10:58:25;4.20;;;3.13;;
297;SDS011;133;49.626;9.680;2022-10-16T11:01:08;3.13;;;2.93;;
297;SDS011;133;49.626;9.680;2022-10-16T11:06:33;6.33;;;2.90;;
297;SDS011;133;49.626;9.680;2022-10-16T11:09:25;2.60;;;2.40;;
297;SDS011;133;49.626;9.680;2022-10-16T11:15:12;4.73;;;2.70;;
297;SDS011;133;49.626;9.680;2022-10-16T11:23:13;5.17;;;3.60;;
297;SDS011;133;49.626;9.680;2022-10-16T11:25:43;2.70;;;2.50;;
297;SDS011;133;49.626;9.680;2022-10-16T11:28:13;2.30;;;2.10;;
297;SDS011;133;49.626;9.680;2022-10-16T11:39:46;6.07;;;4.53;;
297;SDS011;133;49.626;9.680;2022-10-16T11:42:32;4.93;;;3.90;;
297;SDS011;133;49.626;9.680;2022-10-16T11:45:33;3.93;;;3.70;;
297;SDS011;133;49.626;9.680;2022-10-16T11:48:35;5.30;;;4.33;;
297;SDS011;133;49.626;9.680;2022-10-16T11:54:20;3.13;;;2.87;;
297;SDS011;133;49.626;9.680;2022-10-16T12:16:54;2.93;;;2.60;;
297;SDS011;133;49.626;9.680;2022-10-16T12:33:44;9.47;;;3.73;;
297;SDS011;133;49.626;9.680;2022-10-16T12:36:50;4.80;;;2.57;;
297;SDS011;133;49.626;9.680;2022-10-16T12:40:24;2.83;;;1.90;;
297;SDS011;133;49.626;9.680;2022-10-16T12:43:27;5.00;;;2.80;;
297;SDS011;133;49.626;9.680;2022-10-16T12:48:39;3.03;;;2.60;;
297;SDS011;133;49.626;9.680;2022-10-16T12:54:19;4.50;;;2.27;;
297;SDS011;133;49.626;9.680;2022-10-16T13:03:34;2.47;;;2.10;;
297;SDS011;133;49.626;9.680;2022-10-16T13:06:38;5.00;;;2.40;;
297;SDS011;133;49.626;9.680;2022-10-16T13:22:26;3.67;;;2.33;;
297;SDS011;133;49.626;9.680;2022-10-16T13:28:06;2.50;;;2.30;;
297;SDS011;133;49.626;9.680;2022-10-16T13:33:20;3.20;;;2.90;;
297;SDS011;133;49.626;9.680;2022-10-16T13:36:03;3.53;;;2.50;;
297;SDS011;133;49.626;9.680;2022-10-16T13:38:31;9.20;;;2.67;;
297;SDS011;133;49.626;9.680;2022-10-16T13:46:12;4.40;;;2.73;;
297;SDS011;133;49.626;9.680;2022-10-16T13:48:58;4.87;;;2.60;;
297;SDS011;133;49.626;9.680;2022-10-16T13:51:36;2.40;;;2.13;;
297;SDS011;133;49.626;9.680;2022-10-16T13:54:02;3.97;;;2.57;;
297;SDS011;133;49.626;9.680;2022-10-16T13:56:29;2.93;;;2.70;;
297;SDS011;133;49.626;9.680;2022-10-16T13:59:04;2.53;;;2.33;;
297;SDS011;133;49.626;9.680;2022-10-16T14:04:05;3.30;;;2.73;;
297;SDS011;133;49.626;9.680;2022-10-16T14:06:34;5.57;;;2.50;;
297;SDS011;133;49.626;9.680;2022-10-16T14:09:03;2.50;;;2.30;;
297;SDS011;133;49.626;9.680;2022-10-16T14:11:32;2.80;;;2.60;;
297;SDS011;133;49.626;9.680;2022-10-16T14:14:22;3.57;;;2.80;;
297;SDS011;133;49.626;9.680;2022-10-16T14:16:50;2.87;;;2.67;;
297;SDS011;133;49.626;9.680;2022-10-16T14:19:36;2.80;;;2.60;;
297;SDS011;133;49.626;9.680;2022-10-16T14:22:20;2.77;;;2.63;;
297;SDS011;133;49.626;9.680;2022-10-16T14:24:51;5.73;;;2.50;;
297;SDS011;133;49.626;9.680;2022-10-16T14:27:23;2.90;;;2.70;;
297;SDS011;133;49.626;9.680;2022-10-16T14:30:01;4.40;;;3.00;;
297;SDS011;133;49.626;9.680;2022-10-16T14:32:40;3.53;;;2.63;;
297;SDS011;133;49.626;9.680;2022-10-16T14:35:21;3.33;;;2.17;;
297;SDS011;133;49.626;9.680;2022-10-16T14:37:53;4.50;;;2.33;;
297;SDS011;133;49.626;9.680;2022-10-16T14:40:21;2.57;;;2.37;;
297;SDS011;133;49.626;9.680;2022-10-16T14:42:59;3.77;;;2.30;;
297;SDS011;133;49.626;9.680;2022-10-16T14:45:41;6.83;;;2.70;;
297;SDS011;133;49.626;9.680;2022-10-16T14:48:14;3.77;;;2.60;;
297;SDS011;133;49.626;9.680;2022-10-16T14:50:43;5.50;;;2.93;;
297;SDS011;133;49.626;9.680;2022-10-16T14:53:13;4.07;;;2.40;;
297;SDS011;133;49.626;9.680;2022-10-16T14:55:39;3.43;;;2.93;;
297;SDS011;133;49.626;9.680;2022-10-16T14:58:13;2.90;;;2.70;;
297;SDS011;133;49.626;9.680;2022-10-16T15:00:42;2.70;;;2.50;;
297;SDS011;133;49.626;9.680;2022-10-16T15:03:08;5.40;;;2.73;;
297;SDS011;133;49.626;9.680;2022-10-16T15:05:34;3.20;;;2.53;;
297;SDS011;133;49.626;9.680;2022-10-16T15:08:00;2.90;;;2.70;;
297;SDS011;133;49.626;9.680;2022-10-16T15:10:27;3.90;;;2.93;;
297;SDS011;133;49.626;9.680;2022-10-16T15:12:53;8.87;;;3.90;;
297;SDS011;133;49.626;9.680;2022-10-16T15:17:49;7.87;;;4.07;;
297;SDS011;133;49.626;9.680;2022-10-16T15:20:18;13.47;;;6.50;;
297;SDS011;133;49.626;9.680;2022-10-16T15:22:44;9.33;;;5.00;;
297;SDS011;133;49.626;9.680;2022-10-16T15:25:16;6.90;;;3.17;;
297;SDS011;133;49.626;9.680;2022-10-16T15:28:07;2.60;;;2.40;;
297;SDS011;133;49.626;9.680;2022-10-16T15:30:35;6.50;;;2.90;;
297;SDS011;133;49.626;9.680;2022-10-16T15:33:02;2.83;;;2.63;;
297;SDS011;133;49.626;9.680;2022-10-16T15:35:28;5.97;;;2.73;;
297;SDS011;133;49.626;9.680;2022-10-16T15:37:54;2.57;;;2.43;;
297;SDS011;133;49.626;9.680;2022-10-16T15:40:20;2.97;;;2.87;;
297;SDS011;133;49.626;9.680;2022-10-16T15:42:47;3.60;;;2.40;;
297;SDS011;133;49.626;9.680;2022-10-16T15:45:13;3.83;;;2.43;;
297;SDS011;133;49.626;9.680;2022-10-16T15:47:40;3.10;;;2.50;;
297;SDS011;133;49.626;9.680;2022-10-16T15:50:06;3.43;;;2.70;;
297;SDS011;133;49.626;9.680;2022-10-16T15:52:34;2.77;;;2.57;;
297;SDS011;133;49.626;9.680;2022-10-16T15:55:00;3.20;;;2.70;;
297;SDS011;133;49.626;9.680;2022-10-16T15:57:27;3.00;;;2.37;;
297;SDS011;133;49.626;9.680;2022-10-16T15:59:57;2.80;;;2.47;;
297;SDS011;133;49.626;9.680;2022-10-16T16:02:22;2.70;;;2.50;;
297;SDS011;133;49.626;9.680;2022-10-16T16:04:48;2.90;;;2.70;;
297;SDS011;133;49.626;9.680;2022-10-16T16:07:14;4.97;;;2.67;;
297;SDS011;133;49.626;9.680;2022-10-16T16:09:39;4.23;;;2.70;;
297;SDS011;133;49.626;9.680;2022-10-16T16:12:05;2.70;;;2.50;;
297;SDS011;133;49.626;9.680;2022-10-16T16:14:31;3.20;;;3.00;;
297;SDS011;133;49.626;9.680;2022-10-16T16:16:57;5.70;;;2.40;;
297;SDS011;133;49.626;9.680;2022-10-16T16:19:23;3.67;;;3.13;;
297;SDS011;133;49.626;9.680;2022-10-16T16:21:49;3.13;;;2.57;;
297;SDS011;133;49.626;9.680;2022-10-16T16:24:15;3.33;;;3.00;;
297;SDS011;133;49.626;9.680;2022-10-16T16:26:41;2.67;;;2.50;;
297;SDS011;133;49.626;9.680;2022-10-16T16:29:12;2.83;;;2.63;;
297;SDS011;133;49.626;9.680;2022-10-16T16:31:40;2.80;;;2.60;;
297;SDS011;133;49.626;9.680;2022-10-16T16:34:06;7.77;;;3.00;;
297;SDS011;133;49.626;9.680;2022-10-16T16:36:32;2.70;;;2.50;;
297;SDS011;133;49.626;9.680;2022-10-16T16:38:59;3.20;;;2.57;;
297;SDS011;133;49.626;9.680;2022-10-16T16:41:45;3.30;;;2.60;;
297;SDS011;133;49.626;9.680;2022-10-16T16:44:27;2.80;;;2.70;;
297;SDS011;133;49.626;9.680;2022-10-16T16:46:53;3.73;;;2.60;;
297;SDS011;133;49.626;9.680;2022-10-16T16:49:19;5.47;;;2.80;;
297;SDS011;133;49.626;9.680;2022-10-16T16:51:45;3.27;;;2.80;;
297;SDS011;133;49.626;9.680;2022-10-16T16:54:11;14.37;;;2.80;;
297;SDS011;133;49.626;9.680;2022-10-16T16:56:37;3.10;;;2.60;;
297;SDS011;133;49.626;9.680;2022-10-16T16:59:03;3.33;;;3.20;;
297;SDS011;133;49.626;9.680;2022-10-16T17:01:30;3.20;;;2.53;;
297;SDS011;133;49.626;9.680;2022-10-16T17:03:56;2.63;;;2.40;;
297;SDS011;133;49.626;9.680;2022-10-16T17:06:25;4.03;;;2.80;;
297;SDS011;133;49.626;9.680;2022-10-16T17:08:52;3.97;;;2.97;;
297;SDS011;133;49.626;9.680;2022-10-16T17:11:20;3.00;;;2.80;;
297;SDS011;133;49.626;9.680;2022-10-16T17:13:48;3.93;;;3.50;;
297;SDS011;133;49.626;9.680;2022-10-16T17:16:15;5.97;;;3.10;;
297;SDS011;133;49.626;9.680;2022-10-16T17:18:41;6.33;;;3.07;;
297;SDS011;133;49.626;9.680;2022-10-16T17:21:07;4.13;;;3.30;;
297;SDS011;133;49.626;9.680;2022-10-16T17:23:35;6.70;;;3.47;;
297;SDS011;133;49.626;9.680;2022-10-16T17:26:08;3.10;;;2.73;;
297;SDS011;133;49.626;9.680;2022-10-16T17:28:37;3.40;;;3.00;;
297;SDS011;133;49.626;9.680;2022-10-16T17:33:40;3.10;;;2.90;;
297;SDS011;133;49.626;9.680;2022-10-16T17:36:06;5.10;;;3.03;;
297;SDS011;133;49.626;9.680;2022-10-16T17:38:32;3.40;;;3.00;;
297;SDS011;133;49.626;9.680;2022-10-16T17:41:08;4.30;;;2.80;;
297;SDS011;133;49.626;9.680;2022-10-16T17:43:38;6.07;;;3.10;;
297;SDS011;133;49.626;9.680;2022-10-16T17:46:05;4.63;;;3.13;;
297;SDS011;133;49.626;9.680;2022-10-16T17:48:31;5.60;;;3.10;;
297;SDS011;133;49.626;9.680;2022-10-16T17:51:02;4.10;;;3.10;;
297;SDS011;133;49.626;9.680;2022-10-16T17:53:29;4.17;;;3.00;;
297;SDS011;133;49.626;9.680;2022-10-16T17:55:54;5.30;;;3.00;;
297;SDS011;133;49.626;9.680;2022-10-16T17:58:23;5.27;;;3.00;;
297;SDS011;133;49.626;9.680;2022-10-16T18:00:49;7.20;;;3.23;;
297;SDS011;133;49.626;9.680;2022-10-16T18:03:14;6.27;;;2.90;;
297;SDS011;133;49.626;9.680;2022-10-16T18:05:40;3.13;;;2.97;;
297;SDS011;133;49.626;9.680;2022-10-16T18:08:06;6.40;;;3.30;;
297;SDS011;133;49.626;9.680;2022-10-16T18:10:31;11.50;;;3.20;;
297;SDS011;133;49.626;9.680;2022-10-16T18:12:57;4.27;;;3.30;;
297;SDS011;133;49.626;9.680;2022-10-16T18:15:22;3.53;;;2.90;;
297;SDS011;133;49.626;9.680;2022-10-16T18:17:48;6.13;;;3.30;;
297;SDS011;133;49.626;9.680;2022-10-16T18:20:14;3.30;;;3.10;;
297;SDS011;133;49.626;9.680;2022-10-16T18:22:39;3.50;;;3.30;;
297;SDS011;133;49.626;9.680;2022-10-16T18:25:05;3.10;;;2.90;;
297;SDS011;133;49.626;9.680;2022-10-16T18:27:32;3.50;;;2.90;;
297;SDS011;133;49.626;9.680;2022-10-16T18:29:58;3.83;;;3.03;;
297;SDS011;133;49.626;9.680;2022-10-16T18:32:24;5.03;;;3.33;;
297;SDS011;133;49.626;9.680;2022-10-16T18:34:51;6.43;;;2.97;;
297;SDS011;133;49.626;9.680;2022-10-16T18:37:16;6.10;;;3.43;;
297;SDS011;133;49.626;9.680;2022-10-16T18:39:47;4.70;;;3.33;;